Time;durP1;ratioP1;P1;durP2;ratioP2;P2;SDS_P1;SDS_P2;PMS_P1;PMS_P2;Temp;Humidity;BMP_temperature;BMP_pressure;BME280_temperature;BME280_humidity;BME280_pressure;Samples;Min_cycle;Max_cycle;Signal;HPM_P1;HPM_P2
2022/10/12 00:00:54;;;;;;;27.35;9.70;;;;;;;7.74;97.37;102396.16;6160008;23;20120;-74
2022/10/12 00:03:21;;;;;;;29.92;10.18;;;;;;;7.76;97.45;102396.94;6134033;23;20009;-74
2022/10/12 00:05:58;;;;;;;29.73;11.23;;;;;;;7.78;97.19;102386.91;6134458;23;20069;-73
2022/10/12 00:08:23;;;;;;;24.27;11.20;;;;;;;7.87;97.13;102391.66;6133314;23;20025;-73
2022/10/12 00:10:49;;;;;;;32.83;10.88;;;;;;;7.94;96.86;102391.25;6134199;23;20006;-74
2022/10/12 00:13:14;;;;;;;30.67;10.23;;;;;;;7.96;96.67;102389.34;6159703;23;20092;-73
2022/10/12 00:15:40;;;;;;;27.38;10.48;;;;;;;7.94;96.74;102391.25;6133620;23;20008;-73
2022/10/12 00:18:06;;;;;;;33.65;11.23;;;;;;;7.97;96.63;102396.47;6133161;23;20009;-74
2022/10/12 00:20:32;;;;;;;26.38;11.43;;;;;;;7.94;96.85;102391.25;6160175;23;20444;-74
2022/10/12 00:22:57;;;;;;;30.45;11.30;;;;;;;7.95;96.48;102392.97;6133684;23;20029;-73
2022/10/12 00:25:23;;;;;;;28.33;11.45;;;;;;;7.88;96.76;102382.59;6133774;23;20056;-73
2022/10/12 00:27:48;;;;;;;28.50;10.85;;;;;;;7.89;96.57;102381.66;6133775;23;19997;-71
2022/10/12 00:30:14;;;;;;;27.83;9.82;;;;;;;7.98;96.70;102376.59;6133478;23;20002;-72
2022/10/12 00:32:39;;;;;;;29.30;9.55;;;;;;;7.97;96.49;102380.28;6134036;23;20006;-72
2022/10/12 00:35:05;;;;;;;32.25;10.95;;;;;;;7.99;97.08;102383.72;6133619;23;20014;-72
2022/10/12 00:37:30;;;;;;;33.30;12.07;;;;;;;8.05;97.00;102380.59;6159388;23;20001;-72
2022/10/12 00:39:56;;;;;;;26.95;10.52;;;;;;;8.08;96.92;102383.94;6159959;23;20056;-72
2022/10/12 00:42:21;;;;;;;30.40;11.00;;;;;;;8.09;96.73;102374.06;6133677;23;20109;-72
2022/10/12 00:44:49;;;;;;;26.85;10.55;;;;;;;8.12;96.76;102382.78;6133609;23;20001;-72
2022/10/12 00:47:32;;;;;;;23.95;11.02;;;;;;;8.13;96.76;102376.41;6133766;23;20005;-72
2022/10/12 00:50:14;;;;;;;29.17;9.75;;;;;;;8.15;96.52;102382.59;6133940;23;20085;-71
2022/10/12 00:52:42;;;;;;;22.13;10.82;;;;;;;8.16;96.42;102386.16;6154518;23;20095;-72
2022/10/12 00:55:13;;;;;;;25.98;10.60;;;;;;;8.19;96.50;102385.91;6129975;23;20009;-72
2022/10/12 00:57:39;;;;;;;25.70;12.33;;;;;;;8.17;96.46;102387.88;6130554;23;20008;-72
2022/10/12 01:00:08;;;;;;;33.00;13.43;;;;;;;8.23;96.91;102387.44;6129941;23;20344;-72
2022/10/12 01:02:37;;;;;;;28.25;11.73;;;;;;;8.20;97.10;102384.94;6104020;23;20037;-72
2022/10/12 01:05:03;;;;;;;28.83;10.73;;;;;;;8.18;96.83;102388.72;6130054;23;20010;-71
2022/10/12 01:07:29;;;;;;;35.13;10.93;;;;;;;8.25;96.50;102393.59;6130662;23;20001;-72
2022/10/12 01:09:55;;;;;;;31.02;10.75;;;;;;;8.26;95.81;102387.22;6129588;23;19998;-72
2022/10/12 01:12:22;;;;;;;26.38;11.50;;;;;;;8.29;95.90;102386.16;6130203;23;20044;-72
2022/10/12 01:14:47;;;;;;;24.65;10.40;;;;;;;8.28;95.99;102390.69;6103605;23;20353;-72
2022/10/12 01:17:32;;;;;;;26.95;10.93;;;;;;;8.26;95.74;102387.22;6104422;23;20002;-72
2022/10/12 01:20:28;;;;;;;28.00;10.65;;;;;;;8.20;96.43;102386.78;6131600;23;20012;-71
2022/10/12 01:23:15;;;;;;;23.48;10.15;;;;;;;8.17;96.20;102382.47;6106088;23;20002;-74
2022/10/12 01:26:09;;;;;;;28.70;11.18;;;;;;;8.15;96.07;102385.28;6105889;23;20002;-72
2022/10/12 01:28:38;;;;;;;25.40;9.68;;;;;;;7.83;97.92;102376.69;6106112;23;20014;-72
2022/10/12 01:31:18;;;;;;;39.20;12.18;;;;;;;7.85;98.84;102379.28;6131685;23;20005;-72
2022/10/12 01:33:50;;;;;;;25.67;10.35;;;;;;;7.76;99.93;102383.47;6105377;23;20030;-72
2022/10/12 01:36:27;;;;;;;23.27;10.75;;;;;;;7.76;100.00;102383.47;6105158;23;20002;-70
2022/10/12 01:38:57;;;;;;;33.92;11.32;;;;;;;7.86;100.00;102372.91;6131749;23;20079;-70
2022/10/12 01:41:31;;;;;;;24.58;11.25;;;;;;;8.11;99.73;102364.88;6105150;23;19998;-70
2022/10/12 01:43:56;;;;;;;33.42;11.32;;;;;;;8.03;99.69;102363.69;6104711;23;20009;-70
2022/10/12 01:46:24;;;;;;;25.20;10.27;;;;;;;8.11;99.92;102366.69;6104846;23;20026;-71
2022/10/12 01:48:53;;;;;;;40.80;11.52;;;;;;;8.15;100.00;102368.22;6132128;23;20102;-70
2022/10/12 01:51:40;;;;;;;31.50;10.85;;;;;;;8.30;100.00;102369.00;6105090;23;20010;-70
2022/10/12 01:54:09;;;;;;;23.92;8.05;;;;;;;8.21;100.00;102373.19;6127873;23;20005;-70
2022/10/12 01:56:47;;;;;;;27.08;11.35;;;;;;;8.29;100.00;102365.44;6159886;23;20008;-71
2022/10/12 01:59:24;;;;;;;32.40;10.73;;;;;;;8.31;100.00;102363.47;6160725;23;20041;-70
2022/10/12 02:01:56;;;;;;;33.97;10.63;;;;;;;8.46;100.00;102360.72;6134742;23;20009;-70
2022/10/12 02:04:31;;;;;;;29.33;9.45;;;;;;;8.57;100.00;102363.53;6135082;23;20088;-70
2022/10/12 02:07:04;;;;;;;28.75;9.48;;;;;;;8.66;100.00;102352.06;6134358;23;20010;-70
2022/10/12 02:09:33;;;;;;;25.83;9.57;;;;;;;8.76;100.00;102346.88;6134538;23;20024;-70
2022/10/12 02:12:09;;;;;;;19.98;8.45;;;;;;;8.81;99.43;102356.38;6134782;23;20001;-70
2022/10/12 02:14:39;;;;;;;34.42;9.52;;;;;;;8.81;99.85;102352.81;6134674;23;20028;-70
2022/10/12 02:17:09;;;;;;;31.30;9.32;;;;;;;8.89;99.65;102351.28;6159285;23;20376;-70
2022/10/12 02:19:40;;;;;;;31.60;10.63;;;;;;;8.85;99.83;102349.75;6162333;23;20056;-70
2022/10/12 02:22:07;;;;;;;33.03;11.40;;;;;;;8.86;100.00;102337.97;6136536;23;20002;-70
2022/10/12 02:24:37;;;;;;;27.80;9.68;;;;;;;8.98;100.00;102345.19;6136588;23;20365;-70
2022/10/12 02:27:06;;;;;;;37.13;10.63;;;;;;;9.09;100.00;102348.97;6136577;23;20016;-71
2022/10/12 02:29:40;;;;;;;25.75;8.60;;;;;;;9.06;99.67;102344.63;6163135;23;20077;-71
2022/10/12 02:32:18;;;;;;;37.03;9.20;;;;;;;9.20;99.46;102346.34;6136803;23;20002;-71
2022/10/12 02:35:01;;;;;;;34.97;10.07;;;;;;;9.14;99.93;102341.38;6136854;23;20040;-71
2022/10/12 02:37:45;;;;;;;23.23;8.32;;;;;;;9.10;100.00;102334.47;6136844;23;20009;-71
2022/10/12 02:40:32;;;;;;;28.83;10.07;;;;;;;9.21;100.00;102332.72;6163249;23;20006;-71
2022/10/12 02:43:04;;;;;;;25.67;8.80;;;;;;;9.28;100.00;102322.31;6137192;23;20321;-70
2022/10/12 02:45:32;;;;;;;33.45;10.45;;;;;;;9.37;100.00;102327.00;6136697;23;20009;-70
2022/10/12 02:47:59;;;;;;;25.65;9.10;;;;;;;9.42;99.51;102319.44;6136539;23;20001;-70
2022/10/12 02:50:26;;;;;;;24.13;9.50;;;;;;;9.41;99.88;102312.28;6136028;23;20080;-71
2022/10/12 02:52:52;;;;;;;33.13;10.52;;;;;;;9.44;99.69;102317.47;6136100;23;20009;-70
2022/10/12 02:55:17;;;;;;;27.33;10.10;;;;;;;9.44;99.66;102312.06;6136308;23;20005;-71
2022/10/12 02:57:43;;;;;;;23.83;9.20;;;;;;;9.49;99.77;102304.47;6135841;23;20437;-71
2022/10/12 03:00:09;;;;;;;23.48;8.93;;;;;;;9.55;99.20;102313.09;6161595;23;20016;-70
2022/10/12 03:02:34;;;;;;;26.85;8.30;;;;;;;9.63;99.13;102316.06;6136062;23;20009;-70
2022/10/12 03:04:59;;;;;;;25.20;9.13;;;;;;;9.61;99.04;102309.94;6136004;23;20013;-70
2022/10/12 03:07:25;;;;;;;37.65;8.77;;;;;;;9.61;98.97;102309.94;6136800;23;20009;-71
2022/10/12 03:09:51;;;;;;;25.17;7.97;;;;;;;9.40;100.00;102315.13;6136475;23;20010;-70
2022/10/12 03:12:16;;;;;;;20.52;6.80;;;;;;;9.41;100.00;102312.28;6137008;23;19997;-70
2022/10/12 03:14:42;;;;;;;25.10;8.05;;;;;;;9.56;100.00;102309.41;6161930;23;20009;-71
2022/10/12 03:17:07;;;;;;;32.42;8.07;;;;;;;9.72;100.00;102315.38;6160806;23;20006;-70
2022/10/12 03:19:32;;;;;;;30.27;7.50;;;;;;;9.62;100.00;102315.22;6161672;23;20016;-70
2022/10/12 03:21:58;;;;;;;24.08;7.43;;;;;;;9.65;100.00;102308.69;6162404;23;20040;-70
2022/10/12 03:24:23;;;;;;;42.10;8.90;;;;;;;9.61;100.00;102310.78;6135671;23;20056;-70
2022/10/12 03:26:49;;;;;;;27.63;7.95;;;;;;;9.83;100.00;102311.84;6136025;23;20009;-71
2022/10/12 03:29:14;;;;;;;46.17;8.95;;;;;;;9.81;100.00;102311.97;6135854;23;20006;-70
2022/10/12 03:31:40;;;;;;;30.35;9.10;;;;;;;9.83;100.00;102315.41;6162237;23;20082;-70
2022/10/12 03:34:05;;;;;;;28.50;8.90;;;;;;;9.72;100.00;102304.56;6136298;23;19998;-70
2022/10/12 03:36:31;;;;;;;29.77;8.13;;;;;;;9.80;100.00;102307.53;6135946;23;20068;-70
2022/10/12 03:38:56;;;;;;;40.35;9.75;;;;;;;9.83;99.93;102301.88;6135922;23;20002;-71
2022/10/12 03:41:21;;;;;;;37.00;8.43;;;;;;;9.77;100.00;102307.75;6161534;23;20092;-71
2022/10/12 03:43:47;;;;;;;23.45;7.63;;;;;;;9.83;100.00;102307.28;6135787;23;20001;-70
2022/10/12 03:46:13;;;;;;;32.70;9.30;;;;;;;9.86;100.00;102312.47;6161601;23;20001;-71
2022/10/12 03:48:38;;;;;;;24.70;7.72;;;;;;;10.09;100.00;102307.13;6135354;23;19998;-71
2022/10/12 03:51:04;;;;;;;21.88;6.30;;;;;;;10.14;99.56;102305.78;6162140;23;20002;-70
2022/10/12 03:53:30;;;;;;;33.03;7.68;;;;;;;9.83;100.00;102307.28;6148416;23;20064;-71
2022/10/12 03:55:55;;;;;;;34.10;9.32;;;;;;;9.96;100.00;102308.06;6106599;23;20002;-71
2022/10/12 03:58:21;;;;;;;29.95;8.65;;;;;;;9.91;100.00;102310.28;6130939;23;20060;-70
2022/10/12 04:00:46;;;;;;;31.60;8.50;;;;;;;9.96;100.00;102308.06;6130581;23;20006;-71
2022/10/12 04:03:12;;;;;;;34.20;7.80;;;;;;;9.99;100.00;102302.44;6130908;23;20002;-71
2022/10/12 04:05:38;;;;;;;29.33;7.38;;;;;;;9.88;100.00;102310.50;6132030;23;20108;-71
2022/10/12 04:08:04;;;;;;;43.45;7.80;;;;;;;9.76;100.00;102311.44;6129484;23;20073;-71
2022/10/12 04:10:29;;;;;;;24.45;6.78;;;;;;;9.90;100.00;102303.13;6131348;23;20036;-70
2022/10/12 04:12:55;;;;;;;28.92;8.18;;;;;;;9.98;100.00;102308.84;6129442;23;20047;-71
2022/10/12 04:15:20;;;;;;;27.08;8.02;;;;;;;9.94;100.00;102304.63;6129816;23;20006;-71
2022/10/12 04:17:46;;;;;;;28.80;6.55;;;;;;;9.89;100.00;102301.41;6105219;23;20037;-70
2022/10/12 04:20:11;;;;;;;24.27;7.38;;;;;;;9.91;100.00;102309.41;6129217;23;20002;-71
2022/10/12 04:22:37;;;;;;;37.85;8.20;;;;;;;9.86;100.00;102307.06;6129332;23;20020;-71
2022/10/12 04:25:03;;;;;;;25.92;6.30;;;;;;;9.76;100.00;102300.63;6129385;23;20006;-71
2022/10/12 04:27:28;;;;;;;36.05;7.30;;;;;;;9.96;100.00;102302.66;6130804;23;20072;-71
2022/10/12 04:29:54;;;;;;;36.83;7.60;;;;;;;9.90;100.00;102308.53;6129592;23;19998;-70
2022/10/12 04:32:19;;;;;;;32.95;7.25;;;;;;;9.87;100.00;102292.56;6130854;23;20051;-71
2022/10/12 04:34:45;;;;;;;33.47;7.95;;;;;;;9.96;100.00;102286.41;6129554;23;20107;-71
2022/10/12 04:37:10;;;;;;;27.02;7.65;;;;;;;9.99;100.00;102299.72;6130904;23;20009;-70
2022/10/12 04:39:35;;;;;;;30.73;7.43;;;;;;;9.90;100.00;102292.31;6104876;23;20069;-71
2022/10/12 04:42:01;;;;;;;32.60;8.95;;;;;;;9.93;100.00;102291.22;6128923;23;20006;-71
2022/10/12 04:44:26;;;;;;;34.80;7.55;;;;;;;9.93;100.00;102292.09;6129303;23;20024;-71
2022/10/12 04:46:51;;;;;;;28.92;7.72;;;;;;;9.91;100.00;102293.16;6129539;23;20013;-71
2022/10/12 04:49:17;;;;;;;53.55;8.95;;;;;;;9.72;100.00;102288.34;6105082;23;20013;-71
2022/10/12 04:51:42;;;;;;;25.88;7.00;;;;;;;9.93;100.00;102286.66;6130613;23;20014;-71
2022/10/12 04:54:09;;;;;;;29.25;6.90;;;;;;;9.99;100.00;102291.59;6131271;23;20006;-71
2022/10/12 04:56:34;;;;;;;34.35;8.63;;;;;;;9.73;100.00;102282.81;6132930;23;20491;-71
2022/10/12 04:58:59;;;;;;;29.50;9.63;;;;;;;9.71;100.00;102292.84;6130833;23;20092;-71
2022/10/12 05:01:25;;;;;;;27.05;6.50;;;;;;;9.75;100.00;102298.91;6131442;23;20037;-71
2022/10/12 05:03:50;;;;;;;34.25;7.57;;;;;;;9.71;100.00;102292.84;6131510;23;20030;-71
2022/10/12 05:06:16;;;;;;;23.90;6.47;;;;;;;9.63;100.00;102289.03;6132817;23;20033;-71
2022/10/12 05:08:41;;;;;;;35.72;8.77;;;;;;;9.67;100.00;102290.53;6131436;23;20005;-71
2022/10/12 05:11:06;;;;;;;32.40;8.77;;;;;;;9.62;100.00;102287.31;6106985;23;20001;-71
2022/10/12 05:13:31;;;;;;;31.17;7.03;;;;;;;9.52;100.00;102282.63;6133130;23;20002;-71
2022/10/12 05:15:57;;;;;;;27.27;6.90;;;;;;;9.56;100.00;102295.88;6131451;23;20010;-71
2022/10/12 05:18:23;;;;;;;30.88;6.45;;;;;;;9.38;100.00;102292.72;6131191;23;20013;-71
2022/10/12 05:20:48;;;;;;;18.92;6.32;;;;;;;9.34;99.40;102300.22;6131182;23;20012;-70
2022/10/12 05:23:13;;;;;;;34.97;8.77;;;;;;;9.19;100.00;102301.34;6132735;23;20013;-71
2022/10/12 05:25:39;;;;;;;39.92;8.30;;;;;;;9.22;100.00;102301.13;6131268;23;20002;-70
2022/10/12 05:28:05;;;;;;;27.40;6.53;;;;;;;9.22;100.00;102306.53;6106877;23;20092;-71
2022/10/12 05:30:31;;;;;;;26.98;7.20;;;;;;;8.94;100.00;102305.88;6131435;23;20002;-71
2022/10/12 05:32:56;;;;;;;31.88;7.93;;;;;;;9.14;100.00;102303.56;6131786;23;20056;-71
2022/10/12 05:35:22;;;;;;;29.73;7.50;;;;;;;9.13;100.00;102299.13;6131577;23;20009;-70
2022/10/12 05:37:47;;;;;;;28.95;7.78;;;;;;;8.93;100.00;102300.56;6130957;23;20017;-71
2022/10/12 05:40:13;;;;;;;39.08;8.93;;;;;;;8.83;100.00;102295.00;6130846;23;20404;-71
2022/10/12 05:42:38;;;;;;;33.25;7.10;;;;;;;8.79;100.00;102293.47;6107166;23;20006;-71
2022/10/12 05:45:04;;;;;;;29.98;7.10;;;;;;;8.90;100.00;102293.56;6130701;23;20009;-71
2022/10/12 05:47:29;;;;;;;36.45;8.55;;;;;;;8.80;100.00;102300.63;6132831;23;20033;-70
2022/10/12 05:49:55;;;;;;;32.58;7.53;;;;;;;8.85;100.00;102293.03;6130785;23;20002;-71
2022/10/12 05:52:20;;;;;;;40.63;12.40;;;;;;;8.84;100.00;102290.47;6132230;23;20006;-71
2022/10/12 05:54:46;;;;;;;39.42;9.93;;;;;;;8.88;100.00;102298.22;6106887;23;20008;-70
2022/10/12 05:57:13;;;;;;;24.55;7.80;;;;;;;8.89;100.00;102299.94;6131241;23;20060;-70
2022/10/12 05:59:39;;;;;;;30.25;8.38;;;;;;;8.80;100.00;102300.63;6132236;23;20006;-70
2022/10/12 06:02:04;;;;;;;27.42;9.23;;;;;;;8.88;100.00;102303.63;6131135;23;20056;-70
2022/10/12 06:04:29;;;;;;;28.75;7.68;;;;;;;8.82;100.00;102293.28;6130501;23;20006;-71
2022/10/12 06:06:55;;;;;;;32.95;7.80;;;;;;;8.76;100.00;102303.66;6130077;23;20010;-70
2022/10/12 06:09:20;;;;;;;40.17;9.35;;;;;;;8.69;100.00;102300.53;6132783;23;20002;-73
2022/10/12 06:11:45;;;;;;;26.80;6.38;;;;;;;8.60;100.00;102303.88;6130941;23;20006;-71
2022/10/12 06:14:11;;;;;;;28.88;8.32;;;;;;;8.70;100.00;102295.03;6130602;23;20022;-71
2022/10/12 06:16:36;;;;;;;26.15;7.40;;;;;;;8.80;100.00;102305.16;6106875;23;20056;-70
2022/10/12 06:19:02;;;;;;;32.05;7.05;;;;;;;8.73;100.00;102288.53;6131670;23;20029;-70
2022/10/12 06:21:27;;;;;;;31.40;8.57;;;;;;;8.78;100.00;102307.97;6130746;23;20084;-70
2022/10/12 06:23:53;;;;;;;28.73;8.95;;;;;;;8.87;100.00;102301.06;6105842;23;20009;-70
2022/10/12 06:26:18;;;;;;;33.78;8.77;;;;;;;8.83;100.00;102305.81;6106060;23;20001;-70
2022/10/12 06:28:43;;;;;;;31.15;8.40;;;;;;;8.79;100.00;102309.69;6106142;23;20008;-70
2022/10/12 06:31:10;;;;;;;43.75;9.40;;;;;;;8.68;100.00;102296.13;6130069;23;20342;-70
2022/10/12 06:33:35;;;;;;;40.95;8.15;;;;;;;8.63;100.00;102303.69;6105899;23;20014;-72
2022/10/12 06:36:01;;;;;;;33.30;9.63;;;;;;;8.72;100.00;102302.16;6130681;23;19998;-71
2022/10/12 06:38:26;;;;;;;36.83;9.82;;;;;;;8.74;100.00;102306.47;6106318;23;20010;-71
2022/10/12 06:40:52;;;;;;;46.33;9.55;;;;;;;8.78;100.00;102297.16;6129949;23;20014;-71
2022/10/12 06:43:18;;;;;;;45.45;10.20;;;;;;;8.80;100.00;102308.75;6130570;23;20021;-71
2022/10/12 06:45:43;;;;;;;41.58;9.77;;;;;;;8.80;100.00;102311.44;6131238;23;20056;-71
2022/10/12 06:48:09;;;;;;;37.63;9.70;;;;;;;8.92;100.00;102309.66;6129987;23;20076;-71
2022/10/12 06:50:34;;;;;;;46.42;9.88;;;;;;;9.04;100.00;102307.91;6105063;23;20534;-71
2022/10/12 06:53:00;;;;;;;29.25;9.23;;;;;;;9.07;100.00;102302.28;6130145;23;20013;-71
2022/10/12 06:55:25;;;;;;;46.00;10.55;;;;;;;9.15;100.00;102310.69;6094473;23;20048;-71
2022/10/12 06:57:51;;;;;;;36.88;9.05;;;;;;;9.13;100.00;102312.66;6122211;23;20110;-72
2022/10/12 07:00:16;;;;;;;38.22;9.77;;;;;;;9.18;100.00;102316.69;6125465;23;20089;-72
2022/10/12 07:02:42;;;;;;;30.27;7.47;;;;;;;9.19;100.00;102317.56;6098963;23;20081;-72
2022/10/12 07:05:08;;;;;;;34.25;7.70;;;;;;;9.28;100.00;102316.03;6100172;23;20425;-71
2022/10/12 07:07:35;;;;;;;29.58;8.00;;;;;;;9.37;100.00;102316.19;6124597;23;20025;-72
2022/10/12 07:10:04;;;;;;;27.67;7.80;;;;;;;9.50;100.00;102311.59;6088532;23;20006;-71
2022/10/12 07:12:33;;;;;;;27.05;7.20;;;;;;;9.55;100.00;102313.97;6099524;23;20006;-71
2022/10/12 07:14:59;;;;;;;36.80;7.80;;;;;;;9.74;100.00;102318.84;6123593;23;20093;-73
2022/10/12 07:17:27;;;;;;;27.25;6.75;;;;;;;9.73;100.00;102319.81;6098691;23;20033;-73
2022/10/12 07:19:53;;;;;;;32.65;6.63;;;;;;;9.90;100.00;102324.78;6066503;23;20021;-73
2022/10/12 07:22:18;;;;;;;22.50;6.13;;;;;;;9.97;100.00;102326.03;6124570;23;20005;-73
2022/10/12 07:24:44;;;;;;;38.05;5.85;;;;;;;9.99;100.00;102318.66;6099308;23;20392;-72
2022/10/12 07:27:09;;;;;;;27.77;7.05;;;;;;;10.10;100.00;102319.66;6099352;23;20097;-73
2022/10/12 07:29:36;;;;;;;28.55;6.30;;;;;;;10.23;100.00;102321.31;6098816;23;20024;-73
2022/10/12 07:32:02;;;;;;;26.27;5.25;;;;;;;10.40;100.00;102311.88;6100000;23;20069;-72
2022/10/12 07:34:29;;;;;;;35.28;6.32;;;;;;;10.57;99.80;102318.66;6115464;23;20101;-73
2022/10/12 07:36:55;;;;;;;29.10;6.18;;;;;;;10.68;98.52;102320.50;6123488;23;20049;-73
2022/10/12 07:39:21;;;;;;;25.35;4.80;;;;;;;10.68;97.72;102320.50;6100065;23;20033;-72
2022/10/12 07:41:51;;;;;;;23.27;4.32;;;;;;;10.81;97.01;102326.63;6098702;23;20088;-73
2022/10/12 07:44:18;;;;;;;21.48;6.03;;;;;;;10.91;97.26;102314.09;6124580;23;20013;-72
2022/10/12 07:46:44;;;;;;;35.25;6.22;;;;;;;10.92;95.49;102323.94;6099828;23;20002;-71
2022/10/12 07:49:14;;;;;;;32.88;5.65;;;;;;;10.97;96.26;102321.72;6125158;23;19994;-73
2022/10/12 07:51:40;;;;;;;36.90;7.03;;;;;;;11.17;94.76;102316.50;6124778;23;20002;-73
2022/10/12 07:54:05;;;;;;;26.27;5.00;;;;;;;11.07;94.87;102322.66;6117754;23;20036;-73
2022/10/12 07:56:31;;;;;;;33.65;5.78;;;;;;;11.34;94.72;102329.50;6125306;23;20057;-73
2022/10/12 07:58:57;;;;;;;21.48;5.75;;;;;;;11.51;92.84;102320.84;6124365;23;20023;-73
2022/10/12 08:01:25;;;;;;;23.10;4.57;;;;;;;11.42;92.21;102327.03;6124585;23;20005;-73
2022/10/12 08:03:55;;;;;;;27.38;5.38;;;;;;;11.33;91.21;102327.78;6123857;23;20012;-73
2022/10/12 08:06:23;;;;;;;30.75;4.93;;;;;;;11.42;92.25;102324.31;6124471;23;20009;-73
2022/10/12 08:08:48;;;;;;;25.98;5.00;;;;;;;11.52;91.76;102325.25;6125775;23;20111;-73
2022/10/12 08:11:15;;;;;;;27.65;4.70;;;;;;;11.84;90.50;102321.72;6123055;23;20007;-73
2022/10/12 08:13:41;;;;;;;22.52;5.22;;;;;;;11.87;90.70;102321.47;6124342;23;20005;-73
2022/10/12 08:16:10;;;;;;;24.10;4.53;;;;;;;11.82;90.90;102318.28;6123639;23;20008;-72
2022/10/12 08:18:35;;;;;;;30.05;5.35;;;;;;;12.09;88.94;102318.59;6124468;23;19998;-73
2022/10/12 08:21:08;;;;;;;39.95;6.07;;;;;;;12.23;88.54;102323.69;6124046;23;20013;-72
2022/10/12 08:23:35;;;;;;;21.27;4.90;;;;;;;12.11;88.39;102319.31;6124615;23;20017;-72
2022/10/12 08:26:00;;;;;;;24.20;5.20;;;;;;;12.22;88.18;102321.97;6124327;23;19998;-72
2022/10/12 08:28:26;;;;;;;23.63;4.75;;;;;;;12.50;86.25;102330.41;6123220;23;19994;-72
2022/10/12 08:30:51;;;;;;;22.58;4.90;;;;;;;12.57;85.22;102331.59;6123327;23;20030;-73
2022/10/12 08:33:17;;;;;;;38.15;5.15;;;;;;;12.67;85.19;102321.66;6124546;23;20006;-73
2022/10/12 08:35:43;;;;;;;26.58;4.90;;;;;;;12.88;84.45;102320.72;6125029;23;20060;-73
2022/10/12 08:38:10;;;;;;;29.95;4.82;;;;;;;13.08;83.98;102338.81;6124279;23;20002;-72
2022/10/12 08:40:51;;;;;;;22.10;4.80;;;;;;;13.23;80.95;102329.28;6122246;23;20008;-72
2022/10/12 08:43:54;;;;;;;30.48;5.63;;;;;;;13.27;80.70;102324.44;6112058;23;20006;-73
2022/10/12 08:46:25;;;;;;;33.03;4.07;;;;;;;13.39;79.81;102322.47;6122781;23;20053;-72
2022/10/12 08:48:58;;;;;;;24.40;4.30;;;;;;;13.21;80.28;102331.28;6123504;23;20234;-72
2022/10/12 08:51:28;;;;;;;24.30;3.80;;;;;;;13.19;79.21;102322.38;6098237;23;20016;-72
2022/10/12 08:54:12;;;;;;;28.90;4.25;;;;;;;13.17;79.57;102329.84;6122980;23;20016;-72
2022/10/12 08:56:40;;;;;;;19.10;3.80;;;;;;;13.18;79.52;102320.69;6124545;23;20006;-72
2022/10/12 08:59:18;;;;;;;30.77;5.30;;;;;;;13.44;78.76;102320.19;6122900;23;20018;-72
2022/10/12 09:01:54;;;;;;;25.60;4.10;;;;;;;13.51;77.27;102313.16;6122891;23;20009;-73
2022/10/12 09:04:38;;;;;;;26.65;4.53;;;;;;;13.60;77.13;102309.56;6122077;23;20069;-73
2022/10/12 09:07:09;;;;;;;25.92;4.60;;;;;;;13.89;76.28;102314.13;6122148;23;20096;-73
2022/10/12 09:10:12;;;;;;;24.95;4.15;;;;;;;13.95;76.94;102302.66;6097766;23;20036;-73
2022/10/12 09:12:46;;;;;;;29.17;4.90;;;;;;;13.87;76.16;102305.25;6087780;23;20014;-72
2022/10/12 09:15:21;;;;;;;29.05;4.03;;;;;;;13.94;75.78;102309.13;6124415;23;20001;-73
2022/10/12 09:17:54;;;;;;;28.27;4.75;;;;;;;13.87;75.06;102316.16;6098210;23;20002;-73
2022/10/12 09:20:29;;;;;;;28.02;5.00;;;;;;;13.52;76.04;102301.28;6123499;23;20037;-73
2022/10/12 09:23:06;;;;;;;23.17;4.22;;;;;;;13.97;75.19;102308.84;6097495;23;20100;-72
2022/10/12 09:25:32;;;;;;;31.25;5.20;;;;;;;13.87;74.70;102305.25;6123614;23;20065;-73
2022/10/12 09:28:12;;;;;;;36.70;4.93;;;;;;;14.18;73.60;102309.53;6123419;23;20002;-73
2022/10/12 09:30:39;;;;;;;20.35;3.92;;;;;;;14.20;71.88;102302.06;6098289;23;20141;-73
2022/10/12 09:33:24;;;;;;;29.98;5.35;;;;;;;14.17;73.27;102296.91;6125139;23;20036;-72
2022/10/12 09:35:49;;;;;;;23.10;4.72;;;;;;;14.26;73.85;102301.47;6098871;23;20045;-72
2022/10/12 09:38:15;;;;;;;27.95;4.10;;;;;;;14.22;72.15;102302.78;6122793;23;20029;-72
2022/10/12 09:40:41;;;;;;;25.80;4.82;;;;;;;14.35;71.58;102306.03;6123307;23;20135;-72
2022/10/12 09:43:08;;;;;;;29.27;4.65;;;;;;;14.37;71.83;102304.03;6126610;23;20012;-72
2022/10/12 09:45:34;;;;;;;27.00;4.68;;;;;;;14.82;70.85;102297.00;6125367;23;20006;-72
2022/10/12 09:48:15;;;;;;;22.48;4.18;;;;;;;14.93;71.05;102308.56;6099656;23;20005;-73
2022/10/12 09:50:43;;;;;;;26.50;4.80;;;;;;;15.34;70.04;102298.09;6123338;23;20034;-73
2022/10/12 09:53:20;;;;;;;24.83;5.15;;;;;;;15.18;69.44;102301.50;6124092;23;20064;-73
2022/10/12 09:56:05;;;;;;;28.48;5.35;;;;;;;15.11;67.94;102296.81;6099714;23;20033;-73
2022/10/12 09:58:40;;;;;;;19.88;4.25;;;;;;;15.06;68.96;102299.13;6099640;23;20014;-74
2022/10/12 10:01:17;;;;;;;23.77;3.95;;;;;;;15.06;67.40;102299.13;6099955;23;20009;-72
2022/10/12 10:03:43;;;;;;;30.80;4.05;;;;;;;14.80;68.83;102305.34;6099637;23;20002;-72
2022/10/12 10:06:08;;;;;;;27.20;4.15;;;;;;;15.12;67.44;102309.44;6124203;23;20008;-73
2022/10/12 10:08:44;;;;;;;26.17;3.60;;;;;;;15.32;65.46;102305.59;6125276;23;19998;-72
2022/10/12 10:11:32;;;;;;;21.20;4.63;;;;;;;15.53;66.19;102296.25;6099655;23;20037;-72
2022/10/12 10:14:00;;;;;;;26.27;4.30;;;;;;;15.38;67.23;102304.97;6099573;23;20002;-73
2022/10/12 10:16:28;;;;;;;21.48;4.93;;;;;;;15.68;66.38;102294.72;6100642;23;20002;-73
2022/10/12 10:19:00;;;;;;;20.52;4.20;;;;;;;15.70;65.99;102298.13;6100326;23;20027;-73
2022/10/12 10:21:33;;;;;;;21.83;4.03;;;;;;;15.53;65.76;102288.06;6099895;23;20032;-73
2022/10/12 10:24:03;;;;;;;27.48;3.95;;;;;;;15.59;65.64;102284.72;6099785;23;20004;-73
2022/10/12 10:26:49;;;;;;;26.00;4.15;;;;;;;15.95;65.63;102280.94;6100346;23;20060;-72
2022/10/12 10:29:29;;;;;;;19.23;4.15;;;;;;;15.91;63.75;102282.28;6100127;23;20005;-73
2022/10/12 10:32:13;;;;;;;23.90;3.92;;;;;;;15.81;63.95;102284.25;6099405;23;20017;-73
2022/10/12 10:34:41;;;;;;;25.33;3.63;;;;;;;16.41;63.40;102281.56;6125971;23;20158;-73
2022/10/12 10:37:18;;;;;;;21.52;4.32;;;;;;;16.25;62.98;102281.50;6125235;23;20002;-73
2022/10/12 10:39:47;;;;;;;20.45;4.43;;;;;;;16.24;63.39;102279.78;6098571;23;20113;-72
2022/10/12 10:42:19;;;;;;;22.92;3.90;;;;;;;16.30;63.81;102273.69;6100434;23;20006;-73
2022/10/12 10:45:19;;;;;;;14.93;3.20;;;;;;;16.50;62.44;102275.16;6125353;23;20089;-72
2022/10/12 10:47:45;;;;;;;20.00;4.28;;;;;;;16.45;60.95;102265.72;6124058;23;20021;-73
2022/10/12 10:50:27;;;;;;;17.75;3.58;;;;;;;16.51;60.71;102271.41;6097210;23;20048;-72
2022/10/12 10:52:56;;;;;;;22.75;4.68;;;;;;;16.35;62.00;102265.81;6123858;23;20008;-72
2022/10/12 10:55:30;;;;;;;14.88;3.00;;;;;;;16.72;61.08;102259.22;6099023;23;20005;-72
2022/10/12 10:58:09;;;;;;;13.43;3.72;;;;;;;16.58;60.46;102266.13;6123952;23;20009;-74
2022/10/12 11:00:38;;;;;;;19.02;3.20;;;;;;;16.30;60.88;102251.81;6125473;23;20006;-72
2022/10/12 11:03:23;;;;;;;22.80;4.03;;;;;;;17.02;60.05;102253.16;6099344;23;20001;-72
2022/10/12 11:06:02;;;;;;;24.27;3.40;;;;;;;17.08;58.34;102244.28;6098770;23;20005;-72
2022/10/12 11:08:29;;;;;;;19.02;3.42;;;;;;;16.77;57.45;102248.63;6122027;23;20062;-72
2022/10/12 11:11:02;;;;;;;12.63;3.72;;;;;;;16.89;58.36;102241.84;6098225;23;20041;-73
2022/10/12 11:13:54;;;;;;;15.80;3.20;;;;;;;17.08;55.54;102241.56;6122395;23;20084;-73
2022/10/12 11:16:44;;;;;;;17.42;3.55;;;;;;;17.09;56.08;102237.78;6099395;23;20002;-75
2022/10/12 11:19:18;;;;;;;17.88;3.50;;;;;;;17.11;56.28;102228.56;6124312;23;20006;-72
2022/10/12 11:21:51;;;;;;;13.52;3.42;;;;;;;17.29;55.62;102226.53;6126103;23;20057;-73
2022/10/12 11:24:23;;;;;;;18.60;3.35;;;;;;;17.44;56.06;102219.34;6125575;23;20010;-73
2022/10/12 11:27:31;;;;;;;14.25;3.20;;;;;;;17.37;54.84;102218.31;6099030;23;20002;-73